Cruise inventory

RRS Charles Darwin CD24

Cruise summary report

Cruise Info. 
Ship name (ship code)RRS Charles Darwin (74AB)
Cruise identifierCD24
Cruise period1987-06-15 — 1987-07-14
StatusCompleted
Port of departurePort Louis, Mauritius
Port of returnMombasa, Kenya
ObjectivesPhysical oceanography. GR 35549 NE
Chief scientistEric Desmond Barton (University of Wales, Bangor School of Ocean Sciences)
Ocean/sea areas 
GeneralIndian Ocean
SpecificAldabra Islands/ W. Indian Ocean
Measurements 
Physical oceanography 
Surface measurements underway (T,S)
BathythermographQuantity: number of profiles = 100
CTD stationsQuantity: number of profiles = 200
Transparency (eg transmissometer)Quantity: number of profiles = 10
Current metersQuantity: number of deployments = 1
Description: Mooring with 3 current meters.
Current metersQuantity: number of recoveries = 5
Description: Moorings holding a total of 21 current meters. 4 deployed on CD22, the 5th on this cruise.
Current profiler (eg ADCP)Description: ADCP
Chemical oceanography 
NitrateQuantity: number of measurements = 500
SilicateQuantity: number of measurements = 500
Data held at BODC 
Series/Profiles 
189  CTD/STD cast
Transmittance and attenuance of the water column
Vertical spatial coordinates
Salinity of the water column
Temperature of the water column
Transmittance and attenuance of the water column
Vertical spatial coordinates
Salinity of the water column
Temperature of the water column

BODC idDate/TimeLocationDoc.
3533601987-07-08 06:35  — 1987-07-08 07:00 9° 24' 43" S  46° 44' 57" E  View metadata report for BODC series reference number 353360
3533721987-07-08 07:33  — 1987-07-08 07:52 9° 24' 43" S  46° 42' 10" E  View metadata report for BODC series reference number 353372
3533841987-07-08 08:19  — 1987-07-08 08:46 9° 24' 46" S  46° 41' 5" E  View metadata report for BODC series reference number 353384
3533961987-07-08 09:26  — 1987-07-08 09:45 9° 24' 20" S  46° 39' 37" E  View metadata report for BODC series reference number 353396
3534031987-07-08 10:25  — 1987-07-08 10:40 9° 24' 55" S  46° 37' 28" E  View metadata report for BODC series reference number 353403
3534151987-07-08 12:45  — 1987-07-08 13:30 9° 24' 30" S  46° 35' 29" E  View metadata report for BODC series reference number 353415
3534271987-07-08 14:11  — 1987-07-08 14:29 9° 24' 56" S  46° 33' 40" E  View metadata report for BODC series reference number 353427
3534391987-07-08 15:27  — 1987-07-08 15:51 9° 19' 1" S  46° 37' 27" E  View metadata report for BODC series reference number 353439
3534401987-07-08 16:13  — 1987-07-08 16:28 9° 20' 12" S  46° 37' 21" E  View metadata report for BODC series reference number 353440
3534521987-07-08 16:50  — 1987-07-08 17:10 9° 21' 47" S  46° 36' 59" E  View metadata report for BODC series reference number 353452
3534641987-07-08 17:30  — 1987-07-08 17:47 9° 23' 29" S  46° 36' 54" E  View metadata report for BODC series reference number 353464
3534761987-07-08 18:12  — 1987-07-08 18:47 9° 25' 3" S  46° 36' 36" E  View metadata report for BODC series reference number 353476
3534881987-07-08 19:18  — 1987-07-08 19:33 9° 26' 41" S  46° 36' 27" E  View metadata report for BODC series reference number 353488
3535071987-07-08 20:00  — 1987-07-08 20:15 9° 28' 25" S  46° 36' 12" E  View metadata report for BODC series reference number 353507
3535191987-07-08 20:44  — 1987-07-08 20:59 9° 30' 22" S  46° 36' 52" E  View metadata report for BODC series reference number 353519
3535201987-07-08 21:27  — 1987-07-08 21:41 9° 32' 16" S  46° 36' 59" E  View metadata report for BODC series reference number 353520
3535321987-07-08 22:00  — 1987-07-08 22:17 9° 32' 58" S  46° 36' 51" E  View metadata report for BODC series reference number 353532
3535441987-07-09 02:53  — 1987-07-09 03:20 9° 16' 5" S  45° 58' 25" E  View metadata report for BODC series reference number 353544
3535561987-07-09 10:11  — 1987-07-09 10:34 9° 0' 17" S  45° 28' 0" E  View metadata report for BODC series reference number 353556
3535681987-07-09 15:01  — 1987-07-09 17:00 9° 0' 17" S  45° 27' 29" E  View metadata report for BODC series reference number 353568
3535811987-07-10 11:02  — 1987-07-10 11:22 9° 47' 23" S  46° 25' 30" E  View metadata report for BODC series reference number 353581
3535931987-07-10 21:53  — 1987-07-10 22:48 9° 15' 19" S  45° 9' 15" E  View metadata report for BODC series reference number 353593
3536001987-07-11 02:00  — 1987-07-11 03:10 9° 5' 7" S  45° 23' 8" E  View metadata report for BODC series reference number 353600
3536121987-07-11 06:55  — 1987-07-11 08:02 8° 53' 24" S  45° 36' 17" E  View metadata report for BODC series reference number 353612
3536241987-07-11 13:29  — 1987-07-11 14:40 8° 42' 10" S  45° 51' 35" E  View metadata report for BODC series reference number 353624
3536361987-07-11 19:12  — 1987-07-11 20:22 8° 23' 5" S  46° 8' 19" E  View metadata report for BODC series reference number 353636
3536481987-07-12 00:10  — 1987-07-12 01:42 8° 17' 17" S  45° 52' 29" E  View metadata report for BODC series reference number 353648
3536611987-07-12 06:02  — 1987-07-12 07:19 8° 7' 14" S  45° 37' 7" E  View metadata report for BODC series reference number 353661
3536731987-06-25 22:13  — 1987-06-25 22:53 9° 14' 34" S  46° 14' 32" E  View metadata report for BODC series reference number 353673
3536851987-06-26 00:11  — 1987-06-26 00:34 9° 14' 40" S  46° 14' 9" E  View metadata report for BODC series reference number 353685
3536971987-06-26 01:05  — 1987-06-26 01:31 9° 14' 40" S  46° 15' 1" E  View metadata report for BODC series reference number 353697
3537041987-06-26 02:13  — 1987-06-26 02:41 9° 14' 24" S  46° 15' 19" E  View metadata report for BODC series reference number 353704
3537161987-06-26 03:04  — 1987-06-26 03:40 9° 14' 44" S  46° 14' 46" E  View metadata report for BODC series reference number 353716
3537281987-06-26 04:02  — 1987-06-26 04:34 9° 14' 43" S  46° 14' 18" E  View metadata report for BODC series reference number 353728
3537411987-06-26 05:10  — 1987-06-26 05:44 9° 14' 54" S  46° 13' 45" E  View metadata report for BODC series reference number 353741
3537531987-06-26 06:08  — 1987-06-26 06:33 9° 14' 52" S  46° 12' 51" E  View metadata report for BODC series reference number 353753
3537651987-07-02 18:16  — 1987-07-02 19:06 9° 15' 2" S  46° 20' 56" E  View metadata report for BODC series reference number 353765
3537771987-07-02 19:48  — 1987-07-02 20:10 9° 14' 46" S  46° 22' 22" E  View metadata report for BODC series reference number 353777
3537891987-07-02 20:20  — 1987-07-02 20:38 9° 14' 44" S  46° 22' 3" E  View metadata report for BODC series reference number 353789
3537901987-07-02 20:50  — 1987-07-02 21:08 9° 14' 49" S  46° 21' 55" E  View metadata report for BODC series reference number 353790
3538081987-07-02 21:20  — 1987-07-02 21:38 9° 14' 44" S  46° 21' 52" E  View metadata report for BODC series reference number 353808
3538211987-07-02 21:50  — 1987-07-02 22:08 9° 14' 31" S  46° 21' 47" E  View metadata report for BODC series reference number 353821
3538331987-07-02 22:20  — 1987-07-02 22:47 9° 14' 30" S  46° 22' 20" E  View metadata report for BODC series reference number 353833
3538451987-07-02 22:55  — 1987-07-02 23:13 9° 14' 28" S  46° 22' 45" E  View metadata report for BODC series reference number 353845
3529831987-07-02 02:12  — 1987-07-02 02:33 9° 31' 0" S  46° 32' 53" E  View metadata report for BODC series reference number 352983
3529951987-07-02 03:29  — 1987-07-02 03:53 9° 33' 34" S  46° 25' 16" E  View metadata report for BODC series reference number 352995
3530091987-07-02 04:59  — 1987-07-02 05:29 9° 30' 19" S  46° 24' 24" E  View metadata report for BODC series reference number 353009
3530101987-07-02 06:20  — 1987-07-02 06:41 9° 32' 3" S  46° 19' 25" E  View metadata report for BODC series reference number 353010
3530221987-07-02 07:25  — 1987-07-02 07:50 9° 36' 35" S  46° 19' 50" E  View metadata report for BODC series reference number 353022
3530341987-07-02 08:59  — 1987-07-02 09:19 9° 35' 45" S  46° 12' 33" E  View metadata report for BODC series reference number 353034
3530461987-07-02 10:07  — 1987-07-02 10:22 9° 32' 38" S  46° 14' 40" E  View metadata report for BODC series reference number 353046
3530581987-07-02 11:09  — 1987-07-02 11:26 9° 29' 17" S  46° 10' 13" E  View metadata report for BODC series reference number 353058
3530711987-07-02 12:16  — 1987-07-02 12:36 9° 31' 41" S  46° 5' 31" E  View metadata report for BODC series reference number 353071
3530831987-07-02 14:36  — 1987-07-02 14:59 9° 23' 46" S  46° 4' 58" E  View metadata report for BODC series reference number 353083
3530951987-07-02 15:41  — 1987-07-02 15:58 9° 24' 34" S  46° 8' 22" E  View metadata report for BODC series reference number 353095
3531021987-07-06 12:53  — 1987-07-06 13:20 9° 18' 28" S  46° 8' 44" E  View metadata report for BODC series reference number 353102
3531141987-07-06 13:56  — 1987-07-06 14:32 9° 19' 37" S  46° 10' 26" E  View metadata report for BODC series reference number 353114
3531261987-07-06 15:01  — 1987-07-06 15:20 9° 21' 47" S  46° 8' 52" E  View metadata report for BODC series reference number 353126
3531381987-07-06 15:49  — 1987-07-06 16:20 9° 23' 19" S  46° 9' 11" E  View metadata report for BODC series reference number 353138
3531511987-07-06 16:49  — 1987-07-06 17:38 9° 25' 30" S  46° 9' 18" E  View metadata report for BODC series reference number 353151
3531631987-07-06 18:26  — 1987-07-06 18:54 9° 26' 58" S  46° 9' 11" E  View metadata report for BODC series reference number 353163
3525771987-06-27 05:00  — 1987-06-27 05:38 9° 23' 16" S  45° 52' 57" E  View metadata report for BODC series reference number 352577
3525891987-06-27 06:51  — 1987-06-27 07:34 9° 19' 27" S  45° 51' 51" E  View metadata report for BODC series reference number 352589
3525901987-06-27 08:40  — 1987-06-27 09:23 9° 12' 34" S  45° 52' 27" E  View metadata report for BODC series reference number 352590
3526081987-06-27 15:20  — 1987-06-27 15:45 9° 30' 31" S  46° 14' 18" E  View metadata report for BODC series reference number 352608
3520801987-06-19 01:50  — 1987-06-19 03:53 8° 55' 16" S  53° 34' 9" E  View metadata report for BODC series reference number 352080
3520921987-06-19 13:54  — 1987-06-19 15:45 8° 57' 3" S  53° 24' 22" E  View metadata report for BODC series reference number 352092
3521111987-06-19 21:25  — 1987-06-19 23:20 8° 57' 58" S  53° 13' 55" E  View metadata report for BODC series reference number 352111
3521231987-06-20 03:35  — 1987-06-20 05:45 9° 0' 24" S  53° 4' 1" E  View metadata report for BODC series reference number 352123
3521351987-06-20 10:23  — 1987-06-20 11:47 9° 2' 40" S  52° 52' 35" E  View metadata report for BODC series reference number 352135
3521471987-06-20 18:35  — 1987-06-20 20:24 9° 6' 40" S  52° 38' 1" E  View metadata report for BODC series reference number 352147
3521591987-06-21 04:20  — 1987-06-21 05:45 8° 16' 18" S  52° 52' 5" E  View metadata report for BODC series reference number 352159
3521601987-06-21 09:43  — 1987-06-21 11:40 8° 21' 42" S  52° 41' 34" E  View metadata report for BODC series reference number 352160
3521721987-06-21 15:51  — 1987-06-21 17:20 8° 25' 32" S  52° 32' 51" E  View metadata report for BODC series reference number 352172
3521841987-06-21 21:51  — 1987-06-21 23:09 8° 34' 39" S  52° 14' 15" E  View metadata report for BODC series reference number 352184
3521961987-06-23 14:46  — 1987-06-23 15:36 9° 19' 56" S  46° 12' 9" E  View metadata report for BODC series reference number 352196
3522031987-06-23 17:38  — 1987-06-23 18:16 9° 23' 44" S  46° 8' 58" E  View metadata report for BODC series reference number 352203
3522151987-06-23 19:23  — 1987-06-23 20:00 9° 29' 54" S  46° 10' 43" E  View metadata report for BODC series reference number 352215
3522271987-06-23 21:29  — 1987-06-23 22:05 9° 32' 53" S  46° 15' 25" E  View metadata report for BODC series reference number 352227
3522391987-06-23 23:06  — 1987-06-24 00:20 9° 31' 38" S  46° 20' 17" E  View metadata report for BODC series reference number 352239
3522401987-06-24 01:59  — 1987-06-24 02:34 9° 29' 44" S  46° 25' 32" E  View metadata report for BODC series reference number 352240
3522521987-06-24 03:44  — 1987-06-24 04:27 9° 29' 32" S  46° 30' 42" E  View metadata report for BODC series reference number 352252
3522641987-06-24 05:53  — 1987-06-24 06:37 9° 26' 49" S  46° 34' 18" E  View metadata report for BODC series reference number 352264
3522761987-06-24 07:32  — 1987-06-24 08:14 9° 23' 11" S  46° 35' 6" E  View metadata report for BODC series reference number 352276
3522881987-06-24 09:31  — 1987-06-24 10:24 9° 21' 1" S  46° 31' 13" E  View metadata report for BODC series reference number 352288
3523071987-06-24 11:12  — 1987-06-24 12:00 9° 19' 53" S  46° 27' 42" E  View metadata report for BODC series reference number 352307
3523191987-06-24 13:21  — 1987-06-24 13:46 9° 19' 32" S  46° 21' 58" E  View metadata report for BODC series reference number 352319
3523201987-06-24 14:39  — 1987-06-24 15:07 9° 19' 34" S  46° 17' 6" E  View metadata report for BODC series reference number 352320
3523321987-06-24 17:09  — 1987-06-24 17:57 9° 15' 57" S  46° 7' 40" E  View metadata report for BODC series reference number 352332
3523441987-06-24 19:21  — 1987-06-24 20:02 9° 23' 29" S  46° 4' 23" E  View metadata report for BODC series reference number 352344
3523561987-06-24 22:18  — 1987-06-24 22:57 9° 31' 57" S  46° 6' 47" E  View metadata report for BODC series reference number 352356
3523681987-06-25 00:13  — 1987-06-25 00:48 9° 35' 37" S  46° 12' 29" E  View metadata report for BODC series reference number 352368
3523811987-06-25 03:25  — 1987-06-25 03:51 9° 35' 30" S  46° 20' 32" E  View metadata report for BODC series reference number 352381
3523931987-06-25 05:19  — 1987-06-25 05:54 9° 34' 20" S  46° 27' 35" E  View metadata report for BODC series reference number 352393
3524001987-06-25 08:57  — 1987-06-25 09:50 9° 30' 58" S  46° 33' 34" E  View metadata report for BODC series reference number 352400
3524121987-06-25 11:44  — 1987-06-25 12:24 9° 28' 9" S  46° 37' 40" E  View metadata report for BODC series reference number 352412
3524241987-06-25 13:49  — 1987-06-25 14:13 9° 23' 57" S  46° 40' 22" E  View metadata report for BODC series reference number 352424
3524361987-06-25 15:32  — 1987-06-25 16:12 9° 18' 59" S  46° 36' 11" E  View metadata report for BODC series reference number 352436
3524481987-06-25 17:59  — 1987-06-25 18:30 9° 15' 7" S  46° 30' 15" E  View metadata report for BODC series reference number 352448
3524611987-06-25 19:41  — 1987-06-25 20:16 9° 14' 5" S  46° 23' 15" E  View metadata report for BODC series reference number 352461
3524731987-06-26 09:09  — 1987-06-26 09:15 9° 21' 53" S  46° 14' 16" E  View metadata report for BODC series reference number 352473
3524851987-06-26 10:50  — 1987-06-26 11:30 9° 13' 7" S  46° 5' 16" E  View metadata report for BODC series reference number 352485
3524971987-06-26 13:50  — 1987-06-26 14:25 9° 14' 34" S  45° 59' 54" E  View metadata report for BODC series reference number 352497
3525041987-06-26 17:20  — 1987-06-26 18:03 9° 20' 21" S  46° 0' 25" E  View metadata report for BODC series reference number 352504
3525161987-06-26 19:18  — 1987-06-26 20:50 9° 25' 26" S  45° 59' 54" E  View metadata report for BODC series reference number 352516
3525281987-06-26 21:32  — 1987-06-26 22:20 9° 30' 19" S  45° 59' 43" E  View metadata report for BODC series reference number 352528
3525411987-06-26 23:49  — 1987-06-27 00:25 9° 36' 12" S  45° 59' 5" E  View metadata report for BODC series reference number 352541
3525531987-06-27 01:25  — 1987-06-27 01:49 9° 36' 53" S  45° 53' 25" E  View metadata report for BODC series reference number 352553
3525651987-06-27 03:20  — 1987-06-27 03:43 9° 30' 45" S  45° 55' 9" E  View metadata report for BODC series reference number 352565
3538691987-07-02 23:55  — 1987-07-03 00:17 9° 14' 2" S  46° 21' 47" E  View metadata report for BODC series reference number 353869
3538701987-07-03 00:59  — 1987-07-03 01:20 9° 14' 14" S  46° 21' 40" E  View metadata report for BODC series reference number 353870
3538821987-07-03 01:31  — 1987-07-03 01:36 9° 14' 17" S  46° 21' 41" E  View metadata report for BODC series reference number 353882
3538941987-07-03 02:36  — 1987-07-03 02:57 9° 15' 1" S  46° 22' 10" E  View metadata report for BODC series reference number 353894
3539011987-07-03 03:03  — 1987-07-03 03:24 9° 15' 15" S  46° 22' 2" E  View metadata report for BODC series reference number 353901
3539131987-07-03 04:06  — 1987-07-03 04:32 9° 14' 57" S  46° 21' 21" E  View metadata report for BODC series reference number 353913
3539251987-07-03 04:37  — 1987-07-03 05:01 9° 14' 52" S  46° 21' 8" E  View metadata report for BODC series reference number 353925
3539371987-07-03 05:07  — 1987-07-03 05:28 9° 14' 52" S  46° 20' 56" E  View metadata report for BODC series reference number 353937
3539491987-07-03 05:35  — 1987-07-03 05:54 9° 14' 49" S  46° 20' 49" E  View metadata report for BODC series reference number 353949
3539501987-07-03 06:03  — 1987-07-03 06:25 9° 14' 48" S  46° 20' 49" E  View metadata report for BODC series reference number 353950
3539621987-07-03 07:44  — 1987-07-03 08:24 9° 14' 55" S  46° 20' 1" E  View metadata report for BODC series reference number 353962
3539741987-07-03 08:45  — 1987-07-03 09:06 9° 14' 57" S  46° 19' 48" E  View metadata report for BODC series reference number 353974
3539861987-07-03 09:15  — 1987-07-03 09:35 9° 15' 5" S  46° 19' 37" E  View metadata report for BODC series reference number 353986
3539981987-07-03 10:07  — 1987-07-03 10:27 9° 15' 20" S  46° 19' 41" E  View metadata report for BODC series reference number 353998
3540011987-07-03 10:40  — 1987-07-03 11:00 9° 15' 20" S  46° 19' 51" E  View metadata report for BODC series reference number 354001
3540131987-07-03 11:25  — 1987-07-03 11:48 9° 14' 58" S  46° 19' 47" E  View metadata report for BODC series reference number 354013
3540251987-07-03 12:08  — 1987-07-03 12:29 9° 14' 46" S  46° 20' 4" E  View metadata report for BODC series reference number 354025
3540371987-07-03 12:42  — 1987-07-03 13:02 9° 14' 43" S  46° 20' 23" E  View metadata report for BODC series reference number 354037
3540491987-07-03 13:15  — 1987-07-03 13:37 9° 14' 37" S  46° 20' 42" E  View metadata report for BODC series reference number 354049
3540501987-07-03 13:59  — 1987-07-03 14:17 9° 14' 32" S  46° 20' 57" E  View metadata report for BODC series reference number 354050
3540621987-07-03 14:29  — 1987-07-03 14:49 9° 14' 25" S  46° 20' 57" E  View metadata report for BODC series reference number 354062
3540741987-07-03 16:12  — 1987-07-03 16:37 9° 14' 43" S  46° 21' 20" E  View metadata report for BODC series reference number 354074
3540861987-07-03 16:45  — 1987-07-03 17:03 9° 14' 43" S  46° 21' 2" E  View metadata report for BODC series reference number 354086
3540981987-07-03 17:03  — 1987-07-03 17:23 9° 14' 53" S  46° 20' 53" E  View metadata report for BODC series reference number 354098
3541051987-07-03 17:37  — 1987-07-03 17:57 9° 15' 10" S  46° 20' 32" E  View metadata report for BODC series reference number 354105
3541171987-07-03 17:57  — 1987-07-03 18:22 9° 15' 13" S  46° 20' 19" E  View metadata report for BODC series reference number 354117
3541291987-07-03 18:29  — 1987-07-03 18:48 9° 15' 22" S  46° 20' 12" E  View metadata report for BODC series reference number 354129
3541301987-07-03 18:52  — 1987-07-03 19:20 9° 15' 27" S  46° 19' 57" E  View metadata report for BODC series reference number 354130
3532791987-07-07 16:36  — 1987-07-07 17:00 9° 25' 16" S  46° 8' 44" E  View metadata report for BODC series reference number 353279
3532801987-07-07 17:30  — 1987-07-07 18:00 9° 25' 14" S  46° 7' 2" E  View metadata report for BODC series reference number 353280
3532921987-07-07 18:52  — 1987-07-07 19:13 9° 25' 2" S  46° 5' 10" E  View metadata report for BODC series reference number 353292
3533111987-07-07 19:41  — 1987-07-07 20:03 9° 25' 5" S  46° 3' 22" E  View metadata report for BODC series reference number 353311
3533231987-07-07 20:47  — 1987-07-07 21:04 9° 24' 36" S  46° 1' 2" E  View metadata report for BODC series reference number 353323
3533351987-07-07 22:45  — 1987-07-07 23:05 9° 24' 53" S  45° 58' 58" E  View metadata report for BODC series reference number 353335
3533471987-07-07 23:34  — 1987-07-07 23:53 9° 24' 47" S  45° 57' 6" E  View metadata report for BODC series reference number 353347
3533591987-07-08 00:29  — 1987-07-08 00:56 9° 25' 9" S  45° 55' 45" E  View metadata report for BODC series reference number 353359
3538571987-07-02 23:25  — 1987-07-02 23:46 9° 14' 19" S  46° 22' 19" E  View metadata report for BODC series reference number 353857
3532181987-07-07 00:17  — 1987-07-07 00:35 9° 25' 3" S  46° 9' 28" E  View metadata report for BODC series reference number 353218
3532311987-07-07 04:00  — 1987-07-07 04:29 9° 31' 2" S  46° 13' 49" E  View metadata report for BODC series reference number 353231
3532431987-07-07 10:49  — 1987-07-07 11:11 9° 23' 40" S  46° 16' 14" E  View metadata report for BODC series reference number 353243
3532551987-07-07 13:10  — 1987-07-07 13:28 9° 24' 48" S  46° 12' 10" E  View metadata report for BODC series reference number 353255
3532671987-07-07 13:59  — 1987-07-07 14:43 9° 25' 5" S  46° 10' 48" E  View metadata report for BODC series reference number 353267
3531751987-07-06 19:23  — 1987-07-06 19:43 9° 28' 29" S  46° 8' 42" E  View metadata report for BODC series reference number 353175
3531871987-07-06 20:17  — 1987-07-06 20:56 9° 30' 2" S  46° 8' 24" E  View metadata report for BODC series reference number 353187
3531991987-07-06 21:57  — 1987-07-06 22:15 9° 31' 57" S  46° 8' 52" E  View metadata report for BODC series reference number 353199
3532061987-07-06 22:47  — 1987-07-06 23:10 9° 33' 19" S  46° 9' 26" E  View metadata report for BODC series reference number 353206
3526211987-06-29 18:58  — 1987-06-29 19:30 9° 6' 12" S  46° 40' 37" E  View metadata report for BODC series reference number 352621
3526331987-06-29 20:50  — 1987-06-29 21:29 9° 3' 9" S  46° 31' 9" E  View metadata report for BODC series reference number 352633
3526451987-06-29 23:20  — 1987-06-29 23:42 9° 3' 24" S  46° 23' 51" E  View metadata report for BODC series reference number 352645
3526571987-06-30 00:30  — 1987-06-30 01:00 9° 3' 17" S  46° 18' 46" E  View metadata report for BODC series reference number 352657
3526691987-06-30 02:25  — 1987-06-30 02:54 9° 3' 59" S  46° 13' 17" E  View metadata report for BODC series reference number 352669
3526701987-06-30 04:12  — 1987-06-30 04:38 9° 4' 5" S  46° 4' 49" E  View metadata report for BODC series reference number 352670
3526821987-06-30 06:16  — 1987-06-30 06:49 9° 11' 30" S  46° 7' 16" E  View metadata report for BODC series reference number 352682
3526941987-06-30 08:06  — 1987-06-30 08:30 9° 10' 9" S  46° 13' 19" E  View metadata report for BODC series reference number 352694
3527011987-06-30 10:18  — 1987-06-30 10:40 9° 10' 19" S  46° 21' 14" E  View metadata report for BODC series reference number 352701
3527131987-06-30 12:03  — 1987-06-30 12:24 9° 8' 56" S  46° 30' 14" E  View metadata report for BODC series reference number 352713
3527251987-06-30 15:43  — 1987-06-30 16:12 9° 11' 25" S  46° 36' 36" E  View metadata report for BODC series reference number 352725
3527371987-06-30 17:31  — 1987-06-30 18:05 9° 18' 49" S  46° 36' 56" E  View metadata report for BODC series reference number 352737
3527491987-06-30 19:24  — 1987-06-30 19:54 9° 15' 22" S  46° 32' 55" E  View metadata report for BODC series reference number 352749
3527501987-06-30 20:47  — 1987-06-30 21:18 9° 14' 56" S  46° 28' 40" E  View metadata report for BODC series reference number 352750
3527621987-06-30 22:39  — 1987-06-30 23:04 9° 14' 37" S  46° 22' 8" E  View metadata report for BODC series reference number 352762
3527741987-06-30 23:54  — 1987-07-01 00:18 9° 14' 58" S  46° 16' 11" E  View metadata report for BODC series reference number 352774
3527861987-07-01 01:43  — 1987-07-01 02:03 9° 15' 59" S  46° 10' 23" E  View metadata report for BODC series reference number 352786
3527981987-07-01 02:57  — 1987-07-01 03:16 9° 18' 23" S  46° 6' 59" E  View metadata report for BODC series reference number 352798
3528051987-07-01 04:46  — 1987-07-01 05:11 9° 20' 24" S  46° 12' 30" E  View metadata report for BODC series reference number 352805
3528171987-07-01 05:49  — 1987-07-01 06:11 9° 22' 3" S  46° 13' 0" E  View metadata report for BODC series reference number 352817
3528291987-07-01 07:28  — 1987-07-01 07:48 9° 19' 32" S  46° 17' 22" E  View metadata report for BODC series reference number 352829
3528301987-07-01 08:40  — 1987-07-01 08:57 9° 21' 37" S  46° 17' 47" E  View metadata report for BODC series reference number 352830
3528421987-07-01 10:15  — 1987-07-01 10:37 9° 19' 42" S  46° 21' 51" E  View metadata report for BODC series reference number 352842
3528541987-07-01 11:33  — 1987-07-01 11:51 9° 21' 1" S  46° 22' 14" E  View metadata report for BODC series reference number 352854
3528661987-07-01 12:44  — 1987-07-01 13:00 9° 21' 45" S  46° 21' 54" E  View metadata report for BODC series reference number 352866
3528781987-07-01 14:29  — 1987-07-01 15:12 9° 19' 59" S  46° 27' 18" E  View metadata report for BODC series reference number 352878
3528911987-07-01 16:28  — 1987-07-01 16:41 9° 22' 9" S  46° 26' 47" E  View metadata report for BODC series reference number 352891
3529091987-07-01 17:20  — 1987-07-01 17:32 9° 22' 51" S  46° 30' 30" E  View metadata report for BODC series reference number 352909
3529101987-07-01 18:38  — 1987-07-01 19:05 9° 21' 4" S  46° 31' 14" E  View metadata report for BODC series reference number 352910
3529221987-07-01 20:05  — 1987-07-01 20:24 9° 24' 12" S  46° 35' 13" E  View metadata report for BODC series reference number 352922
3529341987-07-01 21:19  — 1987-07-01 21:36 9° 23' 14" S  46° 40' 9" E  View metadata report for BODC series reference number 352934
3529461987-07-01 22:21  — 1987-07-01 22:48 9° 27' 1" S  46° 39' 10" E  View metadata report for BODC series reference number 352946
3529581987-07-01 23:32  — 1987-07-01 23:56 9° 27' 32" S  46° 33' 6" E  View metadata report for BODC series reference number 352958
3529711987-07-02 00:45  — 1987-07-02 01:07 9° 29' 43" S  46° 29' 18" E  View metadata report for BODC series reference number 352971